createdAt,value
2018-09-04T00:00:48.330Z,63.70
2018-09-04T00:01:48.538Z,62.60
2018-09-04T00:03:51.517Z,61.20
2018-09-04T00:04:51.658Z,61.90
2018-09-04T00:05:51.849Z,61.60
2018-09-04T00:06:51.989Z,62.20
2018-09-04T00:07:52.271Z,62.40
2018-09-04T00:08:51.527Z,62.40
2018-09-04T00:09:51.900Z,61.50
2018-09-04T00:10:52.077Z,63.90
2018-09-04T00:11:51.300Z,63.50
2018-09-04T00:12:52.242Z,64.60
2018-09-04T00:13:51.239Z,63.10
2018-09-04T00:14:51.356Z,63.60
2018-09-04T00:15:51.596Z,62.90
2018-09-04T00:16:51.830Z,64.90
2018-09-04T00:18:13.061Z,62.50
2018-09-04T00:19:13.267Z,64.40
2018-09-04T00:20:34.618Z,62.50
2018-09-04T00:21:34.808Z,63.00
2018-09-04T00:22:34.973Z,62.10
2018-09-04T00:23:35.206Z,61.80
2018-09-04T00:24:35.466Z,62.80
2018-09-04T00:25:35.966Z,64.00
2018-09-04T00:26:56.073Z,61.80
2018-09-04T00:27:56.170Z,63.50
2018-09-04T00:28:56.388Z,64.40
2018-09-04T00:29:56.647Z,61.70
2018-09-04T00:30:56.830Z,64.10
2018-09-04T00:31:56.111Z,60.00
2018-09-04T00:32:56.404Z,61.70
2018-09-04T00:33:56.547Z,61.50
2018-09-04T00:34:56.688Z,61.90
2018-09-04T00:35:56.735Z,61.00
2018-09-04T00:36:56.929Z,60.90
2018-09-04T00:37:56.184Z,63.80
2018-09-04T00:38:56.341Z,63.30
2018-09-04T00:40:17.607Z,64.00
2018-09-04T00:41:38.681Z,63.80
2018-09-04T00:42:38.689Z,62.90
2018-09-04T00:43:38.747Z,63.90
2018-09-04T00:44:39.059Z,64.70
2018-09-04T00:45:39.119Z,65.10
2018-09-04T00:46:39.324Z,63.10
2018-09-04T00:48:00.257Z,62.30
2018-09-04T00:49:00.574Z,63.80
2018-09-04T00:50:00.700Z,62.20
2018-09-04T00:51:00.915Z,62.50
2018-09-04T00:52:01.138Z,59.80
2018-09-04T00:53:21.402Z,62.90
2018-09-04T00:54:21.463Z,58.60
2018-09-04T00:55:21.407Z,61.70
2018-09-04T00:56:21.654Z,62.30
2018-09-04T00:57:43.193Z,64.10
2018-09-04T00:58:43.363Z,64.10
2018-09-04T01:00:04.532Z,64.50
2018-09-04T01:01:04.650Z,64.60
2018-09-04T01:02:04.915Z,64.20
2018-09-04T01:03:04.970Z,66.20
2018-09-04T01:04:05.165Z,65.20
2018-09-04T01:05:05.438Z,63.10
2018-09-04T01:06:04.870Z,67.00
2018-09-04T01:07:05.139Z,65.70
2018-09-04T01:08:05.283Z,64.80
2018-09-04T01:09:04.595Z,63.00
2018-09-04T01:10:04.631Z,67.20
2018-09-04T01:11:04.858Z,66.90
2018-09-04T01:12:05.126Z,69.60
2018-09-04T01:13:04.361Z,67.20
2018-09-04T01:14:04.614Z,67.40
2018-09-04T01:15:04.810Z,69.70
2018-09-04T01:16:05.064Z,70.30
2018-09-04T01:17:05.344Z,68.90
2018-09-04T01:18:04.563Z,69.20
2018-09-04T01:19:04.936Z,73.20
2018-09-04T01:20:05.283Z,71.90
2018-09-04T01:21:04.542Z,72.50
2018-09-04T01:22:04.679Z,73.50
2018-09-04T01:23:04.878Z,71.60
2018-09-04T01:24:25.976Z,73.20
2018-09-04T01:25:26.130Z,72.70
2018-09-04T01:26:26.452Z,72.20
2018-09-04T01:27:26.358Z,76.50
2018-09-04T01:28:26.663Z,79.70
2018-09-04T01:29:27.159Z,80.50
2018-09-04T01:30:26.473Z,82.80
2018-09-04T01:31:26.708Z,80.30
2018-09-04T01:32:27.041Z,83.90
2018-09-04T01:33:26.136Z,82.40
2018-09-04T01:34:26.351Z,80.90
2018-09-04T01:35:26.498Z,81.10
2018-09-04T01:36:26.697Z,82.90
2018-09-04T01:37:26.863Z,82.30
2018-09-04T01:38:46.876Z,88.20
2018-09-04T01:39:46.959Z,84.70
2018-09-04T01:40:47.072Z,90.50
2018-09-04T01:41:47.294Z,92.80
2018-09-04T01:42:47.674Z,91.90
2018-09-04T01:43:47.770Z,91.00
2018-09-04T01:44:46.871Z,92.90
2018-09-04T01:46:08.010Z,94.70
2018-09-04T01:47:29.296Z,94.30
2018-09-04T01:48:29.771Z,98.60
2018-09-04T01:49:50.737Z,94.40
2018-09-04T01:50:51.016Z,92.70
2018-09-04T01:51:50.927Z,90.70
2018-09-04T01:53:11.758Z,91.60
2018-09-04T01:54:12.246Z,86.40
2018-09-04T01:55:12.502Z,88.80
2018-09-04T01:56:11.788Z,92.20
2018-09-04T01:57:33.006Z,90.70
2018-09-04T01:58:33.147Z,91.40
2018-09-04T01:59:33.462Z,91.30
2018-09-04T02:00:33.741Z,94.10
2018-09-04T02:01:33.767Z,91.60
2018-09-04T02:02:33.966Z,96.20
2018-09-04T02:03:33.187Z,93.00
2018-09-04T02:04:33.363Z,95.20
2018-09-04T02:05:33.342Z,94.80
2018-09-04T02:06:33.368Z,97.40
2018-09-04T02:07:54.447Z,93.70
2018-09-04T02:08:54.761Z,98.30
2018-09-04T02:09:55.075Z,95.80
2018-09-04T02:10:55.283Z,98.50
2018-09-04T02:11:55.548Z,97.90
2018-09-04T02:12:54.825Z,96.30
2018-09-04T02:13:55.111Z,99.20
2018-09-04T02:14:55.395Z,99.20
2018-09-04T02:15:54.662Z,94.30
2018-09-04T02:16:54.908Z,98.80
2018-09-04T02:17:55.186Z,98.10
2018-09-04T02:19:16.320Z,97.60
2018-09-04T02:20:16.459Z,97.30
2018-09-04T02:21:16.685Z,97.40
2018-09-04T02:22:16.827Z,95.90
2018-09-04T02:23:17.103Z,97.50
2018-09-04T02:24:16.434Z,97.40
2018-09-04T02:25:16.546Z,94.00
2018-09-04T02:26:16.697Z,96.90
2018-09-04T02:27:37.887Z,97.90
2018-09-04T02:28:59.747Z,95.00
2018-09-04T02:29:59.693Z,98.10
2018-09-04T02:31:00.080Z,96.40
2018-09-04T02:32:00.065Z,99.70
2018-09-04T02:33:00.324Z,105.90
2018-09-04T02:34:00.495Z,105.60
2018-09-04T02:35:00.801Z,110.00
2018-09-04T02:36:00.233Z,109.00
2018-09-04T02:37:00.266Z,102.30
2018-09-04T02:38:00.556Z,105.90
2018-09-04T02:38:59.664Z,102.10
2018-09-04T02:39:59.950Z,102.30
2018-09-04T02:41:00.188Z,98.40
2018-09-04T02:42:41.952Z,99.20
2018-09-04T02:44:04.303Z,97.40
2018-09-04T02:45:04.486Z,98.80
2018-09-04T02:46:04.711Z,96.80
2018-09-04T02:47:03.918Z,92.70
2018-09-04T02:48:03.970Z,95.30
2018-09-04T02:49:03.986Z,94.20
2018-09-04T02:50:24.710Z,94.60
2018-09-04T02:51:25.002Z,95.40
2018-09-04T02:52:25.224Z,94.40
2018-09-04T02:53:25.499Z,99.80
2018-09-04T02:54:25.638Z,96.00
2018-09-04T02:55:45.717Z,99.50
2018-09-04T02:56:45.928Z,102.30
2018-09-04T02:57:45.959Z,101.30
2018-09-04T02:58:46.165Z,107.30
2018-09-04T02:59:46.521Z,103.80
2018-09-04T03:00:45.776Z,104.30
2018-09-04T03:02:06.847Z,107.60
2018-09-04T03:03:06.966Z,100.40
2018-09-04T03:04:07.213Z,103.70
2018-09-04T03:05:07.569Z,113.70
2018-09-04T03:06:08.003Z,114.40
2018-09-04T03:07:07.658Z,105.10
2018-09-04T03:08:07.719Z,102.90
2018-09-04T03:09:07.944Z,107.00
2018-09-04T03:10:07.038Z,106.00
2018-09-04T03:11:07.290Z,101.40
2018-09-04T03:12:07.542Z,102.80
2018-09-04T03:13:07.816Z,116.10
2018-09-04T03:14:07.331Z,144.20
2018-09-04T03:15:07.672Z,109.00
2018-09-04T03:16:07.818Z,113.20
2018-09-04T03:17:08.835Z,108.60
2018-09-04T03:19:30.851Z,104.40
2018-09-04T03:20:31.197Z,102.90
2018-09-04T03:21:31.156Z,103.10
2018-09-04T03:22:31.355Z,99.70
2018-09-04T03:23:31.663Z,101.90
2018-09-04T03:24:31.891Z,103.60
2018-09-04T03:25:31.024Z,99.20
2018-09-04T03:26:30.993Z,102.60
2018-09-04T03:27:31.119Z,100.60
2018-09-04T03:28:31.275Z,98.00
2018-09-04T03:29:31.352Z,98.30
2018-09-04T03:30:31.461Z,98.30
2018-09-04T03:31:52.329Z,95.80
2018-09-04T03:32:52.590Z,98.00
2018-09-04T03:33:52.821Z,99.00
2018-09-04T03:34:53.151Z,96.20
2018-09-04T03:35:52.323Z,99.80
2018-09-04T03:36:52.470Z,95.50
2018-09-04T03:37:52.822Z,97.00
2018-09-04T03:38:53.198Z,98.90
2018-09-04T03:39:52.424Z,98.10
2018-09-04T03:40:52.549Z,102.10
2018-09-04T03:41:52.717Z,101.20
2018-09-04T03:42:52.820Z,98.50
2018-09-04T03:43:53.094Z,99.60
2018-09-04T03:44:52.192Z,105.10
2018-09-04T03:45:52.297Z,107.10
2018-09-04T03:46:52.465Z,103.20
2018-09-04T03:47:52.642Z,104.10
2018-09-04T03:48:52.966Z,103.20
2018-09-04T03:49:53.057Z,104.70
2018-09-04T03:50:53.136Z,105.20
2018-09-04T03:51:52.238Z,102.80
2018-09-04T03:52:52.268Z,102.40
2018-09-04T03:53:52.675Z,105.00
2018-09-04T03:54:52.749Z,104.00
2018-09-04T03:55:52.961Z,103.90
2018-09-04T03:56:53.260Z,105.60
2018-09-04T03:57:52.362Z,107.30
2018-09-04T03:58:52.654Z,106.60
2018-09-04T03:59:52.860Z,105.60
2018-09-04T04:00:53.250Z,108.70
2018-09-04T04:02:34.512Z,106.20
2018-09-04T04:03:34.678Z,106.50
2018-09-04T04:04:34.962Z,107.30
2018-09-04T04:05:35.162Z,107.60
2018-09-04T04:06:35.494Z,109.30
2018-09-04T04:07:34.654Z,105.70
2018-09-04T04:08:34.835Z,107.10
2018-09-04T04:09:35.035Z,105.40
2018-09-04T04:10:35.225Z,104.80
2018-09-04T04:11:56.502Z,105.00
2018-09-04T04:13:17.835Z,108.40
2018-09-04T04:14:18.676Z,106.30
2018-09-04T04:15:18.887Z,102.00
2018-09-04T04:16:18.290Z,102.20
2018-09-04T04:17:18.359Z,103.70
2018-09-04T04:18:18.483Z,103.00
2018-09-04T04:19:18.714Z,100.80
2018-09-04T04:20:18.091Z,102.90
2018-09-04T04:21:18.479Z,98.80
2018-09-04T04:22:18.957Z,101.40
2018-09-04T04:23:18.225Z,102.00
2018-09-04T04:24:18.536Z,97.60
2018-09-04T04:25:18.657Z,97.90
2018-09-04T04:26:18.886Z,98.50
2018-09-04T04:27:18.301Z,96.80
2018-09-04T04:28:18.487Z,95.90
2018-09-04T04:29:18.571Z,97.90
2018-09-04T04:31:00.046Z,97.70
2018-09-04T04:32:00.049Z,95.70
2018-09-04T04:33:42.832Z,93.20
2018-09-04T04:34:43.070Z,96.00
2018-09-04T04:35:43.254Z,96.90
2018-09-04T04:36:43.729Z,92.80
2018-09-04T04:37:43.100Z,94.90
2018-09-04T04:38:43.402Z,92.90
2018-09-04T04:39:42.819Z,96.10
2018-09-04T04:41:04.151Z,92.10
2018-09-04T04:42:04.449Z,90.20
2018-09-04T04:43:04.829Z,90.50
2018-09-04T04:44:04.966Z,89.40
2018-09-04T04:45:25.161Z,87.00
2018-09-04T04:46:25.631Z,85.60
2018-09-04T04:47:25.847Z,85.90
2018-09-04T04:48:26.311Z,88.70
2018-09-04T04:49:25.538Z,87.00
2018-09-04T04:50:25.690Z,88.70
2018-09-04T04:51:26.006Z,82.50
2018-09-04T04:52:26.159Z,81.60
2018-09-04T04:53:25.296Z,85.50
2018-09-04T04:54:25.559Z,84.30
2018-09-04T04:55:25.877Z,80.40
2018-09-04T04:56:26.203Z,81.60
2018-09-04T04:57:25.640Z,81.90
2018-09-04T04:58:25.940Z,82.70
2018-09-04T04:59:26.215Z,84.30
2018-09-04T05:00:25.572Z,82.30
2018-09-04T05:01:26.028Z,81.20
2018-09-04T05:02:25.382Z,80.10
2018-09-04T05:03:46.740Z,80.90
2018-09-04T05:05:08.701Z,81.70
2018-09-04T05:06:30.172Z,79.80
2018-09-04T05:07:30.779Z,82.50
2018-09-04T05:08:30.800Z,80.40
2018-09-04T05:09:51.445Z,81.30
2018-09-04T05:10:51.937Z,81.80
2018-09-04T05:11:52.378Z,82.20
2018-09-04T05:13:12.865Z,81.00
2018-09-04T05:14:55.252Z,80.50
2018-09-04T05:15:55.765Z,81.70
2018-09-04T05:16:56.130Z,81.00
2018-09-04T05:17:55.262Z,82.10
2018-09-04T05:18:55.486Z,80.60
2018-09-04T05:19:55.631Z,78.70
2018-09-04T05:20:55.633Z,78.90
2018-09-04T05:21:55.909Z,77.20
2018-09-04T05:22:56.229Z,78.40
2018-09-04T05:23:55.315Z,75.80
2018-09-04T05:24:55.839Z,77.60
2018-09-04T05:25:56.186Z,76.40
2018-09-04T05:27:37.529Z,74.80
2018-09-04T05:28:37.861Z,73.60
2018-09-04T05:29:38.283Z,70.50
2018-09-04T05:30:37.586Z,69.30
2018-09-04T05:31:58.881Z,69.20
2018-09-04T05:33:20.089Z,69.30
2018-09-04T05:34:41.313Z,68.80
2018-09-04T05:35:41.533Z,68.00
2018-09-04T05:36:41.920Z,67.20
2018-09-04T05:38:03.456Z,67.80
2018-09-04T05:39:03.836Z,68.20
2018-09-04T05:40:04.394Z,66.00
2018-09-04T05:41:03.759Z,64.80
2018-09-04T05:42:25.658Z,65.60
2018-09-04T05:44:30.113Z,62.80
2018-09-04T05:45:31.136Z,64.00
2018-09-04T05:46:30.640Z,62.80
2018-09-04T05:47:31.004Z,60.80
2018-09-04T05:48:30.252Z,60.70
2018-09-04T05:49:30.558Z,59.70
2018-09-04T05:50:51.878Z,59.80
2018-09-04T05:51:52.841Z,58.00
2018-09-04T05:53:13.391Z,59.10
2018-09-04T05:54:34.662Z,60.20
2018-09-04T05:55:34.616Z,58.60
2018-09-04T05:56:34.863Z,58.70
2018-09-04T05:57:35.230Z,57.80
2018-09-04T05:58:35.505Z,56.30
2018-09-04T05:59:34.826Z,57.60
2018-09-04T06:00:35.174Z,55.80
2018-09-04T06:01:35.900Z,55.00
2018-09-04T06:02:35.279Z,54.50
2018-09-04T06:03:35.512Z,52.20
2018-09-04T06:04:55.898Z,50.20
2018-09-04T06:05:56.312Z,51.80
2018-09-04T06:06:56.860Z,49.30
2018-09-04T06:07:56.309Z,48.30
2018-09-04T06:08:56.472Z,47.90
2018-09-04T06:10:17.765Z,48.10
2018-09-04T06:11:17.976Z,45.30
2018-09-04T06:12:18.311Z,47.60
2018-09-04T06:13:18.795Z,43.30
2018-09-04T06:14:18.293Z,43.50
2018-09-04T06:15:39.557Z,41.90
2018-09-04T06:16:39.773Z,42.30
2018-09-04T06:17:40.092Z,41.10
2018-09-04T06:18:40.513Z,39.70
2018-09-04T06:19:39.721Z,41.50
2018-09-04T06:21:21.660Z,38.20
2018-09-04T06:22:21.743Z,38.40
2018-09-04T06:23:21.978Z,38.60
2018-09-04T06:24:22.939Z,38.50
2018-09-04T06:25:23.105Z,37.40
2018-09-04T06:26:44.872Z,36.60
2018-09-04T06:27:44.392Z,35.00
2018-09-04T06:28:44.990Z,33.70
2018-09-04T06:29:44.541Z,33.40
2018-09-04T06:30:44.754Z,34.30
2018-09-04T06:31:44.280Z,31.20
2018-09-04T06:32:44.767Z,31.70
2018-09-04T06:34:05.644Z,32.00
2018-09-04T06:35:06.212Z,31.20
2018-09-04T06:36:05.843Z,31.80
2018-09-04T06:37:06.738Z,30.60
2018-09-04T06:38:06.149Z,30.50
2018-09-04T06:39:05.615Z,31.10
2018-09-04T06:40:06.130Z,29.60
2018-09-04T06:41:05.721Z,29.00
2018-09-04T06:42:27.506Z,29.90
2018-09-04T06:43:49.010Z,27.80
2018-09-04T06:44:49.329Z,28.30
2018-09-04T06:46:31.940Z,27.50
2018-09-04T06:47:32.739Z,27.40
2018-09-04T06:48:32.195Z,27.10
2018-09-04T06:49:32.907Z,26.80
2018-09-04T06:50:53.851Z,26.40
2018-09-04T06:51:54.305Z,26.60
2018-09-04T06:52:53.717Z,25.90
2018-09-04T06:54:15.168Z,25.40
2018-09-04T06:55:15.655Z,26.40
2018-09-04T06:56:36.823Z,25.50
2018-09-04T06:57:37.413Z,23.90
2018-09-04T06:58:37.833Z,24.00
2018-09-04T06:59:37.213Z,23.10
2018-09-04T07:00:37.758Z,24.00
2018-09-04T07:01:37.242Z,24.40
2018-09-04T07:02:37.480Z,23.30
2018-09-04T07:03:38.023Z,22.30
2018-09-04T07:04:37.708Z,23.80
2018-09-04T07:05:37.151Z,23.30
2018-09-04T07:06:37.517Z,24.20
2018-09-04T07:07:58.928Z,22.50
2018-09-04T07:08:59.026Z,23.20
2018-09-04T07:09:59.592Z,22.60
2018-09-04T07:10:59.112Z,22.10
2018-09-04T07:12:20.036Z,21.40
2018-09-04T07:13:20.443Z,23.10
2018-09-04T07:14:20.650Z,21.80
2018-09-04T07:15:20.848Z,21.80
2018-09-04T07:16:21.024Z,22.70
2018-09-04T07:17:20.239Z,22.20
2018-09-04T07:18:20.517Z,22.50
2018-09-04T07:19:22.180Z,21.50
2018-09-04T07:20:20.413Z,22.40
2018-09-04T07:21:20.631Z,22.50
2018-09-04T07:22:42.073Z,22.30
2018-09-04T07:24:03.523Z,21.40
2018-09-04T07:25:24.980Z,21.80
2018-09-04T07:26:25.184Z,22.10
2018-09-04T07:27:46.328Z,22.30
2018-09-04T07:28:46.598Z,21.30
2018-09-04T07:29:46.951Z,22.20
2018-09-04T07:30:47.361Z,23.00
2018-09-04T07:31:47.290Z,22.30
2018-09-04T07:32:46.880Z,23.10
2018-09-04T07:33:47.696Z,21.80
2018-09-04T07:34:47.045Z,21.70
2018-09-04T07:35:47.498Z,22.00
2018-09-04T07:36:46.822Z,21.90
2018-09-04T07:38:08.247Z,21.10
2018-09-04T07:39:30.042Z,22.70
2018-09-04T07:40:30.709Z,22.20
2018-09-04T07:41:30.130Z,22.60
2018-09-04T07:42:30.434Z,22.90
2018-09-04T07:43:30.929Z,22.80
2018-09-04T07:44:30.256Z,22.60
2018-09-04T07:45:30.586Z,23.50
2018-09-04T07:46:51.085Z,22.70
2018-09-04T07:47:51.351Z,23.10
2018-09-04T07:48:51.791Z,23.40
2018-09-04T07:49:52.056Z,24.10
2018-09-04T07:51:54.783Z,24.00
2018-09-04T07:52:55.114Z,23.10
2018-09-04T07:53:55.375Z,23.40
2018-09-04T07:54:55.937Z,23.80
2018-09-04T07:55:55.511Z,22.80
2018-09-04T07:56:55.852Z,24.40
2018-09-04T07:57:55.170Z,22.10
2018-09-04T07:58:55.624Z,23.30
2018-09-04T07:59:55.068Z,22.20
2018-09-04T08:00:55.593Z,22.40
2018-09-04T08:01:55.157Z,22.70
2018-09-04T08:02:55.586Z,24.40
2018-09-04T08:03:54.890Z,24.30
2018-09-04T08:04:55.347Z,22.40
2018-09-04T08:05:54.844Z,23.80
2018-09-04T08:06:55.463Z,22.70
2018-09-04T08:07:55.123Z,23.10
2018-09-04T08:09:16.733Z,22.90
2018-09-04T08:10:17.346Z,23.20
2018-09-04T08:11:16.849Z,22.60
2018-09-04T08:12:17.317Z,23.70
2018-09-04T08:13:17.723Z,23.50
2018-09-04T08:14:59.389Z,22.50
2018-09-04T08:15:59.607Z,22.80
2018-09-04T08:17:00.028Z,24.30
2018-09-04T08:18:00.333Z,24.40
2018-09-04T08:19:00.646Z,23.20
2018-09-04T08:20:00.335Z,22.50
2018-09-04T08:20:59.884Z,22.20
2018-09-04T08:22:00.361Z,22.90
2018-09-04T08:22:59.781Z,22.50
2018-09-04T08:24:00.340Z,23.20
2018-09-04T08:24:59.777Z,22.30
2018-09-04T08:26:00.014Z,23.70
2018-09-04T08:27:00.483Z,22.00
2018-09-04T08:27:59.850Z,21.50
2018-09-04T08:29:00.409Z,21.90
2018-09-04T08:29:59.798Z,21.50
2018-09-04T08:31:01.107Z,22.50
2018-09-04T08:32:20.830Z,22.50
2018-09-04T08:33:22.950Z,22.00
2018-09-04T08:34:42.392Z,23.30
2018-09-04T08:36:04.252Z,21.80
2018-09-04T08:37:26.278Z,21.60
2018-09-04T08:38:26.713Z,21.50
2018-09-04T08:39:27.341Z,21.50
2018-09-04T08:40:26.960Z,22.70
2018-09-04T08:41:26.509Z,21.00
2018-09-04T08:42:51.195Z,22.80
2018-09-04T08:43:50.487Z,22.00
2018-09-04T08:44:50.926Z,22.70
2018-09-04T08:45:50.245Z,22.10
2018-09-04T08:46:50.568Z,20.90
2018-09-04T08:48:12.014Z,20.60
2018-09-04T08:49:12.526Z,20.70
2018-09-04T08:50:11.994Z,20.60
2018-09-04T08:51:12.312Z,21.20
2018-09-04T08:52:12.780Z,20.20
2018-09-04T08:53:12.299Z,19.90
2018-09-04T08:54:12.654Z,22.00
2018-09-04T08:55:12.073Z,21.50
2018-09-04T08:56:12.698Z,19.00
2018-09-04T08:57:12.622Z,19.40
2018-09-04T08:58:35.355Z,18.90
2018-09-04T08:59:35.796Z,19.70
2018-09-04T09:00:36.102Z,20.00
2018-09-04T09:01:56.635Z,18.50
2018-09-04T09:02:57.090Z,19.20
2018-09-04T09:03:57.658Z,18.60
2018-09-04T09:04:56.935Z,17.70
2018-09-04T09:05:57.235Z,17.40
2018-09-04T09:06:56.917Z,16.80
2018-09-04T09:07:57.378Z,18.60
2018-09-04T09:08:56.818Z,18.60
2018-09-04T09:09:57.358Z,18.00
2018-09-04T09:10:56.977Z,17.90
2018-09-04T09:11:57.961Z,16.90
2018-09-04T09:12:57.296Z,16.20
2018-09-04T09:13:56.563Z,15.20
2018-09-04T09:16:21.902Z,14.50
2018-09-04T09:17:22.145Z,15.10
2018-09-04T09:18:23.270Z,15.20
2018-09-04T09:19:22.685Z,15.00
2018-09-04T09:20:22.155Z,15.30
2018-09-04T09:21:22.679Z,15.40
2018-09-04T09:22:22.055Z,15.30
2018-09-04T09:23:22.314Z,15.50
2018-09-04T09:24:22.631Z,14.90
2018-09-04T09:26:04.528Z,15.10
2018-09-04T09:27:26.058Z,14.40
2018-09-04T09:28:26.535Z,13.90
2018-09-04T09:29:27.021Z,16.00
2018-09-04T09:30:26.367Z,15.40
2018-09-04T09:31:27.781Z,15.60
2018-09-04T09:32:26.290Z,15.70
2018-09-04T09:33:26.721Z,14.60
2018-09-04T09:34:26.121Z,15.40
2018-09-04T09:35:47.741Z,15.10
2018-09-04T09:36:49.389Z,14.70
2018-09-04T09:37:48.230Z,15.60
2018-09-04T09:38:48.506Z,14.60
2018-09-04T09:40:30.264Z,14.40
2018-09-04T09:41:30.626Z,14.50
2018-09-04T09:42:31.402Z,15.30
2018-09-04T09:43:52.035Z,13.90
2018-09-04T09:44:52.412Z,14.30
2018-09-04T09:45:52.807Z,14.50
2018-09-04T09:46:52.169Z,14.80
2018-09-04T09:47:52.878Z,14.40
2018-09-04T09:48:52.158Z,14.30
2018-09-04T09:49:52.524Z,13.90
2018-09-04T09:50:52.977Z,13.40
2018-09-04T09:51:52.483Z,13.80
2018-09-04T09:53:14.426Z,14.20
2018-09-04T09:54:36.134Z,12.80
2018-09-04T09:55:57.619Z,12.40
2018-09-04T09:56:58.148Z,13.10
2018-09-04T09:57:57.511Z,13.20
2018-09-04T09:58:58.041Z,12.50
2018-09-04T10:00:18.723Z,13.00
2018-09-04T10:01:19.189Z,13.90
2018-09-04T10:02:19.480Z,12.60
2018-09-04T10:03:40.326Z,12.50
2018-09-04T10:04:40.601Z,13.50
2018-09-04T10:05:40.842Z,13.70
2018-09-04T10:06:40.229Z,13.20
2018-09-04T10:08:02.682Z,13.60
2018-09-04T10:09:02.186Z,14.30
2018-09-04T10:10:02.751Z,12.70
2018-09-04T10:11:02.361Z,12.50
2018-09-04T10:12:02.934Z,14.30
2018-09-04T10:13:02.438Z,13.40
2018-09-04T10:14:02.859Z,13.50
2018-09-04T10:15:02.589Z,13.30
2018-09-04T10:16:03.055Z,13.20
2018-09-04T10:17:03.038Z,12.60
2018-09-04T10:18:02.783Z,13.00
2018-09-04T10:19:02.085Z,13.60
2018-09-04T10:20:02.559Z,13.20
2018-09-04T10:21:03.086Z,13.20
2018-09-04T10:22:44.980Z,13.20
2018-09-04T10:23:45.465Z,12.00
2018-09-04T10:24:45.847Z,13.40
2018-09-04T10:25:45.258Z,13.90
2018-09-04T10:26:45.797Z,12.80
2018-09-04T10:27:45.084Z,13.30
2018-09-04T10:28:45.449Z,14.50
2018-09-04T10:29:45.824Z,13.60
2018-09-04T10:31:27.522Z,12.60
2018-09-04T10:32:27.969Z,13.20
2018-09-04T10:33:28.176Z,13.00
2018-09-04T10:34:27.639Z,13.00
2018-09-04T10:35:28.235Z,12.30
2018-09-04T10:36:48.892Z,12.10
2018-09-04T10:37:49.318Z,12.90
2018-09-04T10:38:49.723Z,13.50
2018-09-04T10:39:49.084Z,12.10
2018-09-04T10:40:49.361Z,12.40
2018-09-04T10:42:10.955Z,12.40
2018-09-04T10:43:32.392Z,12.80
2018-09-04T10:44:32.707Z,11.60
2018-09-04T10:45:33.152Z,11.90
2018-09-04T10:46:32.501Z,11.80
2018-09-04T10:47:32.900Z,11.30
2018-09-04T10:48:33.120Z,12.10
2018-09-04T10:49:33.315Z,13.20
2018-09-04T10:50:54.599Z,13.10
2018-09-04T10:51:54.939Z,13.80
2018-09-04T10:53:16.831Z,13.50
2018-09-04T10:54:17.062Z,12.40
2018-09-04T10:55:17.487Z,12.10
2018-09-04T10:56:16.762Z,11.60
2018-09-04T10:57:17.260Z,11.80
2018-09-04T10:58:17.698Z,11.20
2018-09-04T10:59:17.018Z,12.30
2018-09-04T11:00:17.231Z,13.40
2018-09-04T11:01:17.779Z,12.90
2018-09-04T11:02:17.139Z,13.50
2018-09-04T11:03:17.484Z,12.80
2018-09-04T11:04:16.714Z,12.20
2018-09-04T11:05:16.976Z,12.90
2018-09-04T11:06:17.973Z,12.30
2018-09-04T11:07:39.013Z,11.80
2018-09-04T11:08:39.491Z,11.10
2018-09-04T11:09:39.990Z,10.90
2018-09-04T11:10:39.383Z,11.40
2018-09-04T11:11:40.250Z,12.00
2018-09-04T11:12:39.762Z,12.60
2018-09-04T11:13:39.053Z,11.70
2018-09-04T11:14:39.324Z,13.50
2018-09-04T11:15:39.603Z,12.90
2018-09-04T11:17:00.126Z,12.20
2018-09-04T11:18:00.633Z,12.00
2018-09-04T11:19:01.398Z,11.90
2018-09-04T11:20:00.627Z,11.80
2018-09-04T11:21:00.906Z,11.50
2018-09-04T11:22:00.150Z,10.80
2018-09-04T11:23:00.653Z,13.10
2018-09-04T11:24:00.858Z,13.50
2018-09-04T11:25:01.238Z,12.80
2018-09-04T11:26:00.421Z,12.00
2018-09-04T11:27:02.844Z,11.90
2018-09-04T11:28:00.178Z,11.70
2018-09-04T11:29:01.210Z,12.20
2018-09-04T11:30:00.724Z,12.30
2018-09-04T11:31:00.944Z,11.50
2018-09-04T11:32:00.436Z,12.40
2018-09-04T11:33:00.686Z,11.50
2018-09-04T11:34:00.158Z,12.30
2018-09-04T11:35:21.780Z,12.80
2018-09-04T11:36:22.084Z,11.30
2018-09-04T11:37:22.338Z,11.40
2018-09-04T11:38:22.666Z,11.60
2018-09-04T11:39:21.976Z,12.10
2018-09-04T11:40:23.079Z,11.30
2018-09-04T11:41:22.654Z,12.70
2018-09-04T11:42:22.021Z,12.40
2018-09-04T11:43:22.315Z,12.20
2018-09-04T11:44:22.705Z,11.60
2018-09-04T11:45:43.383Z,11.80
2018-09-04T11:46:44.308Z,11.80
2018-09-04T11:47:43.834Z,12.40
2018-09-04T11:48:43.284Z,13.60
2018-09-04T11:49:43.650Z,12.10
2018-09-04T11:50:44.179Z,11.50
2018-09-04T11:51:43.519Z,11.50
2018-09-04T11:53:05.207Z,12.10
2018-09-04T11:54:05.524Z,12.80
2018-09-04T11:55:26.821Z,11.40
2018-09-04T11:56:27.383Z,11.50
2018-09-04T11:57:27.758Z,10.70
2018-09-04T11:58:27.247Z,11.60
2018-09-04T11:59:27.956Z,10.90
2018-09-04T12:00:27.399Z,11.20
2018-09-04T12:01:27.716Z,11.20
2018-09-04T12:02:27.140Z,11.60
2018-09-04T12:03:27.682Z,11.00
2018-09-04T12:04:26.902Z,11.90
2018-09-04T12:05:48.714Z,10.90
2018-09-04T12:06:49.211Z,11.00
2018-09-04T12:08:11.299Z,11.20
2018-09-04T12:09:11.591Z,11.40
2018-09-04T12:10:12.198Z,11.40
2018-09-04T12:11:11.714Z,11.10
2018-09-04T12:12:12.804Z,11.40
2018-09-04T12:13:12.232Z,12.00
2018-09-04T12:14:11.655Z,11.60
2018-09-04T12:15:12.230Z,11.10
2018-09-04T12:16:11.800Z,10.80
2018-09-04T12:17:12.820Z,11.20
2018-09-04T12:18:12.079Z,10.50
2018-09-04T12:19:53.805Z,9.80
2018-09-04T12:20:54.254Z,10.10
2018-09-04T12:21:54.695Z,10.30
2018-09-04T12:22:54.191Z,10.70
2018-09-04T12:23:54.514Z,11.00
2018-09-04T12:24:53.950Z,10.40
2018-09-04T12:25:54.446Z,9.90
2018-09-04T12:26:53.998Z,10.10
2018-09-04T12:27:54.463Z,9.20
2018-09-04T12:28:53.836Z,9.30
2018-09-04T12:29:54.354Z,9.50
2018-09-04T12:30:54.949Z,9.50
2018-09-04T12:31:55.003Z,9.80
2018-09-04T12:32:54.557Z,9.00
2018-09-04T12:34:36.568Z,9.90
2018-09-04T12:35:37.713Z,10.10
2018-09-04T12:36:37.499Z,10.20
2018-09-04T12:37:58.877Z,10.00
2018-09-04T12:38:59.206Z,10.20
2018-09-04T12:40:20.464Z,9.80
2018-09-04T12:41:21.371Z,9.60
2018-09-04T12:42:20.831Z,10.00
2018-09-04T12:43:21.139Z,9.60
2018-09-04T12:44:20.637Z,31.30
2018-09-04T12:45:21.347Z,15.30
2018-09-04T12:46:20.718Z,10.50
2018-09-04T12:47:21.118Z,11.00
2018-09-04T12:48:20.665Z,11.60
2018-09-04T12:49:21.187Z,10.30
2018-09-04T12:50:21.391Z,10.30
2018-09-04T12:51:20.744Z,11.30
2018-09-04T12:52:21.084Z,9.80
2018-09-04T12:53:21.382Z,10.40
2018-09-04T12:54:41.589Z,10.00
2018-09-04T12:55:42.117Z,10.60
2018-09-04T12:56:41.586Z,9.20
2018-09-04T12:58:03.633Z,9.40
2018-09-04T12:59:03.890Z,10.00
2018-09-04T13:00:04.556Z,10.50
2018-09-04T13:01:04.988Z,9.10
2018-09-04T13:02:04.600Z,10.90
2018-09-04T13:03:03.916Z,9.60
2018-09-04T13:04:04.599Z,10.10
2018-09-04T13:05:04.174Z,9.30
2018-09-04T13:06:03.639Z,9.40
2018-09-04T13:07:04.127Z,10.00
2018-09-04T13:08:04.591Z,9.00
2018-09-04T13:09:04.189Z,9.30
2018-09-04T13:10:03.928Z,8.90
2018-09-04T13:11:05.260Z,8.70
2018-09-04T13:12:03.673Z,8.70
2018-09-04T13:13:04.121Z,9.40
2018-09-04T13:14:04.400Z,8.40
2018-09-04T13:15:03.776Z,8.70
2018-09-04T13:16:04.298Z,8.60
2018-09-04T13:17:03.809Z,8.90
2018-09-04T13:18:04.147Z,9.00
2018-09-04T13:19:04.548Z,8.70
2018-09-04T13:20:04.505Z,8.80
2018-09-04T13:21:03.809Z,9.40
2018-09-04T13:22:04.300Z,8.70
2018-09-04T13:23:03.932Z,8.40
2018-09-04T13:24:04.190Z,8.40
2018-09-04T13:25:03.674Z,9.30
2018-09-04T13:26:04.004Z,8.70
2018-09-04T13:27:04.135Z,8.80
2018-09-04T13:28:04.868Z,7.90
2018-09-04T13:29:04.256Z,9.20
2018-09-04T13:30:04.379Z,8.90
2018-09-04T13:31:03.649Z,8.70
2018-09-04T13:32:04.003Z,8.70
2018-09-04T13:33:04.276Z,8.60
2018-09-04T13:34:03.654Z,8.50
2018-09-04T13:35:04.034Z,9.80
2018-09-04T13:36:04.206Z,8.70
2018-09-04T13:37:03.659Z,9.10
2018-09-04T13:38:04.291Z,8.90
2018-09-04T13:39:04.357Z,8.60
2018-09-04T13:40:03.751Z,9.10
2018-09-04T13:41:25.393Z,8.70
2018-09-04T13:42:27.050Z,9.20
2018-09-04T13:43:25.681Z,9.20
2018-09-04T13:44:26.144Z,8.40